sensor_id;sensor_type;location;lat;lon;timestamp;P1;durP1;ratioP1;P2;durP2;ratioP2
3333;SDS011;1679;50.392;8.008;2022-07-29T00:01:36;2.87;;;2.17;;
3333;SDS011;1679;50.392;8.008;2022-07-29T00:04:01;4.13;;;2.23;;
3333;SDS011;1679;50.392;8.008;2022-07-29T00:06:27;2.63;;;2.20;;
3333;SDS011;1679;50.392;8.008;2022-07-29T00:08:53;3.70;;;2.10;;
3333;SDS011;1679;50.392;8.008;2022-07-29T00:11:18;3.83;;;2.50;;
3333;SDS011;1679;50.392;8.008;2022-07-29T00:13:44;2.67;;;2.27;;
3333;SDS011;1679;50.392;8.008;2022-07-29T00:16:09;3.83;;;2.00;;
3333;SDS011;1679;50.392;8.008;2022-07-29T00:18:35;4.27;;;2.47;;
3333;SDS011;1679;50.392;8.008;2022-07-29T00:21:00;3.93;;;1.73;;
3333;SDS011;1679;50.392;8.008;2022-07-29T00:23:26;4.00;;;2.10;;
3333;SDS011;1679;50.392;8.008;2022-07-29T00:25:51;6.10;;;2.57;;
3333;SDS011;1679;50.392;8.008;2022-07-29T00:28:17;3.20;;;2.03;;
3333;SDS011;1679;50.392;8.008;2022-07-29T00:30:43;4.40;;;2.20;;
3333;SDS011;1679;50.392;8.008;2022-07-29T00:33:09;4.03;;;2.20;;
3333;SDS011;1679;50.392;8.008;2022-07-29T00:35:34;2.40;;;2.10;;
3333;SDS011;1679;50.392;8.008;2022-07-29T00:38:13;3.43;;;2.10;;
3333;SDS011;1679;50.392;8.008;2022-07-29T00:40:40;3.70;;;2.07;;
3333;SDS011;1679;50.392;8.008;2022-07-29T00:43:06;6.10;;;2.33;;
3333;SDS011;1679;50.392;8.008;2022-07-29T00:45:32;5.33;;;2.60;;
3333;SDS011;1679;50.392;8.008;2022-07-29T00:47:57;6.30;;;2.60;;
3333;SDS011;1679;50.392;8.008;2022-07-29T00:50:23;5.23;;;2.10;;
3333;SDS011;1679;50.392;8.008;2022-07-29T00:52:49;4.63;;;2.00;;
3333;SDS011;1679;50.392;8.008;2022-07-29T00:55:17;1.80;;;1.70;;
3333;SDS011;1679;50.392;8.008;2022-07-29T00:57:43;3.40;;;1.70;;
3333;SDS011;1679;50.392;8.008;2022-07-29T01:00:11;7.60;;;2.63;;
3333;SDS011;1679;50.392;8.008;2022-07-29T01:02:39;2.87;;;2.00;;
3333;SDS011;1679;50.392;8.008;2022-07-29T01:05:05;4.03;;;2.10;;
3333;SDS011;1679;50.392;8.008;2022-07-29T01:07:32;5.00;;;2.50;;
3333;SDS011;1679;50.392;8.008;2022-07-29T01:09:58;3.83;;;2.63;;
3333;SDS011;1679;50.392;8.008;2022-07-29T01:12:27;2.93;;;2.73;;
3333;SDS011;1679;50.392;8.008;2022-07-29T01:14:57;2.10;;;1.93;;
3333;SDS011;1679;50.392;8.008;2022-07-29T01:20:20;4.10;;;2.40;;
3333;SDS011;1679;50.392;8.008;2022-07-29T01:23:10;3.50;;;2.57;;
3333;SDS011;1679;50.392;8.008;2022-07-29T01:25:57;2.83;;;2.63;;
3333;SDS011;1679;50.392;8.008;2022-07-29T01:31:01;3.83;;;2.53;;
3333;SDS011;1679;50.392;8.008;2022-07-29T01:33:28;7.20;;;3.10;;
3333;SDS011;1679;50.392;8.008;2022-07-29T01:36:16;4.50;;;2.37;;
3333;SDS011;1679;50.392;8.008;2022-07-29T01:38:47;2.30;;;2.10;;
3333;SDS011;1679;50.392;8.008;2022-07-29T01:41:23;4.70;;;2.83;;
3333;SDS011;1679;50.392;8.008;2022-07-29T01:43:53;5.07;;;2.33;;
3333;SDS011;1679;50.392;8.008;2022-07-29T01:46:47;3.87;;;2.70;;
3333;SDS011;1679;50.392;8.008;2022-07-29T01:49:15;2.53;;;2.43;;
3333;SDS011;1679;50.392;8.008;2022-07-29T01:51:49;2.77;;;2.53;;
3333;SDS011;1679;50.392;8.008;2022-07-29T01:56:51;2.87;;;2.67;;
3333;SDS011;1679;50.392;8.008;2022-07-29T01:59:20;3.57;;;3.13;;
3333;SDS011;1679;50.392;8.008;2022-07-29T02:01:48;3.77;;;2.33;;
3333;SDS011;1679;50.392;8.008;2022-07-29T02:04:17;2.80;;;2.60;;
3333;SDS011;1679;50.392;8.008;2022-07-29T02:06:45;3.90;;;3.00;;
3333;SDS011;1679;50.392;8.008;2022-07-29T02:09:14;3.40;;;2.30;;
3333;SDS011;1679;50.392;8.008;2022-07-29T02:11:40;2.53;;;2.33;;
3333;SDS011;1679;50.392;8.008;2022-07-29T02:14:13;3.00;;;2.57;;
3333;SDS011;1679;50.392;8.008;2022-07-29T02:16:41;3.20;;;3.00;;
3333;SDS011;1679;50.392;8.008;2022-07-29T02:19:07;2.40;;;2.20;;
3333;SDS011;1679;50.392;8.008;2022-07-29T02:21:34;5.40;;;2.67;;
3333;SDS011;1679;50.392;8.008;2022-07-29T02:24:01;7.00;;;3.00;;
3333;SDS011;1679;50.392;8.008;2022-07-29T02:26:29;2.60;;;2.23;;
3333;SDS011;1679;50.392;8.008;2022-07-29T02:28:57;2.87;;;2.50;;
3333;SDS011;1679;50.392;8.008;2022-07-29T02:31:24;2.40;;;2.20;;
3333;SDS011;1679;50.392;8.008;2022-07-29T02:33:53;2.77;;;2.57;;
3333;SDS011;1679;50.392;8.008;2022-07-29T02:36:21;3.83;;;2.57;;
3333;SDS011;1679;50.392;8.008;2022-07-29T02:38:48;6.33;;;2.83;;
3333;SDS011;1679;50.392;8.008;2022-07-29T02:41:17;3.97;;;3.47;;
3333;SDS011;1679;50.392;8.008;2022-07-29T02:43:48;3.57;;;2.87;;
3333;SDS011;1679;50.392;8.008;2022-07-29T02:46:19;2.90;;;2.40;;
3333;SDS011;1679;50.392;8.008;2022-07-29T02:48:51;5.03;;;3.10;;
3333;SDS011;1679;50.392;8.008;2022-07-29T02:51:24;5.10;;;2.73;;
3333;SDS011;1679;50.392;8.008;2022-07-29T02:53:57;3.10;;;2.80;;
3333;SDS011;1679;50.392;8.008;2022-07-29T02:56:27;2.80;;;2.53;;
3333;SDS011;1679;50.392;8.008;2022-07-29T02:59:00;4.20;;;3.00;;
3333;SDS011;1679;50.392;8.008;2022-07-29T03:01:30;3.00;;;2.80;;
3333;SDS011;1679;50.392;8.008;2022-07-29T03:03:57;6.00;;;3.30;;
3333;SDS011;1679;50.392;8.008;2022-07-29T03:06:28;2.70;;;2.60;;
3333;SDS011;1679;50.392;8.008;2022-07-29T03:08:57;3.13;;;2.93;;
3333;SDS011;1679;50.392;8.008;2022-07-29T03:11:24;2.63;;;2.33;;
3333;SDS011;1679;50.392;8.008;2022-07-29T03:13:50;4.20;;;2.73;;
3333;SDS011;1679;50.392;8.008;2022-07-29T03:16:17;3.17;;;2.87;;
3333;SDS011;1679;50.392;8.008;2022-07-29T03:18:44;2.87;;;2.67;;
3333;SDS011;1679;50.392;8.008;2022-07-29T03:21:10;3.77;;;3.10;;
3333;SDS011;1679;50.392;8.008;2022-07-29T03:23:36;2.90;;;2.70;;
3333;SDS011;1679;50.392;8.008;2022-07-29T03:26:01;3.63;;;3.00;;
3333;SDS011;1679;50.392;8.008;2022-07-29T03:28:27;4.07;;;2.30;;
3333;SDS011;1679;50.392;8.008;2022-07-29T03:30:53;2.37;;;2.03;;
3333;SDS011;1679;50.392;8.008;2022-07-29T03:33:19;2.87;;;2.40;;
3333;SDS011;1679;50.392;8.008;2022-07-29T03:35:44;4.40;;;2.90;;
3333;SDS011;1679;50.392;8.008;2022-07-29T03:38:10;3.03;;;2.83;;
3333;SDS011;1679;50.392;8.008;2022-07-29T03:40:44;5.43;;;3.17;;
3333;SDS011;1679;50.392;8.008;2022-07-29T03:43:14;3.13;;;2.80;;
3333;SDS011;1679;50.392;8.008;2022-07-29T03:45:42;3.13;;;2.73;;
3333;SDS011;1679;50.392;8.008;2022-07-29T03:48:12;2.83;;;2.60;;
3333;SDS011;1679;50.392;8.008;2022-07-29T03:50:41;4.27;;;2.57;;
3333;SDS011;1679;50.392;8.008;2022-07-29T03:53:07;3.03;;;2.73;;
3333;SDS011;1679;50.392;8.008;2022-07-29T03:55:36;8.13;;;3.13;;
3333;SDS011;1679;50.392;8.008;2022-07-29T03:58:06;3.17;;;2.87;;
3333;SDS011;1679;50.392;8.008;2022-07-29T04:00:33;3.17;;;2.57;;
3333;SDS011;1679;50.392;8.008;2022-07-29T04:02:59;5.03;;;3.10;;
3333;SDS011;1679;50.392;8.008;2022-07-29T04:05:26;3.30;;;2.93;;
3333;SDS011;1679;50.392;8.008;2022-07-29T04:07:52;3.00;;;2.80;;
3333;SDS011;1679;50.392;8.008;2022-07-29T04:10:17;3.00;;;2.70;;
3333;SDS011;1679;50.392;8.008;2022-07-29T04:12:46;3.37;;;2.43;;
3333;SDS011;1679;50.392;8.008;2022-07-29T04:15:11;3.43;;;3.13;;
3333;SDS011;1679;50.392;8.008;2022-07-29T04:17:37;2.80;;;2.60;;
3333;SDS011;1679;50.392;8.008;2022-07-29T04:20:03;3.50;;;3.30;;
3333;SDS011;1679;50.392;8.008;2022-07-29T04:22:29;3.40;;;3.10;;
3333;SDS011;1679;50.392;8.008;2022-07-29T04:24:55;3.13;;;2.83;;
3333;SDS011;1679;50.392;8.008;2022-07-29T04:27:21;3.23;;;2.97;;
3333;SDS011;1679;50.392;8.008;2022-07-29T04:29:46;5.17;;;2.90;;
3333;SDS011;1679;50.392;8.008;2022-07-29T04:32:12;3.00;;;2.70;;
3333;SDS011;1679;50.392;8.008;2022-07-29T04:34:38;3.43;;;3.13;;
3333;SDS011;1679;50.392;8.008;2022-07-29T04:37:03;3.77;;;3.20;;
3333;SDS011;1679;50.392;8.008;2022-07-29T04:39:29;4.63;;;3.30;;
3333;SDS011;1679;50.392;8.008;2022-07-29T04:41:55;3.77;;;3.47;;
3333;SDS011;1679;50.392;8.008;2022-07-29T04:44:20;5.53;;;3.10;;
3333;SDS011;1679;50.392;8.008;2022-07-29T04:46:46;3.73;;;3.50;;
3333;SDS011;1679;50.392;8.008;2022-07-29T04:49:12;3.20;;;3.00;;
3333;SDS011;1679;50.392;8.008;2022-07-29T04:51:38;4.43;;;3.50;;
3333;SDS011;1679;50.392;8.008;2022-07-29T04:54:03;3.20;;;2.90;;
3333;SDS011;1679;50.392;8.008;2022-07-29T04:56:29;3.83;;;3.53;;
3333;SDS011;1679;50.392;8.008;2022-07-29T04:58:54;3.60;;;3.27;;
3333;SDS011;1679;50.392;8.008;2022-07-29T05:01:20;3.47;;;3.13;;
3333;SDS011;1679;50.392;8.008;2022-07-29T05:03:46;3.10;;;2.63;;
3333;SDS011;1679;50.392;8.008;2022-07-29T05:06:11;3.70;;;2.63;;
3333;SDS011;1679;50.392;8.008;2022-07-29T05:08:37;9.87;;;3.90;;
3333;SDS011;1679;50.392;8.008;2022-07-29T05:11:03;6.83;;;3.97;;
3333;SDS011;1679;50.392;8.008;2022-07-29T05:13:29;6.23;;;2.93;;
3333;SDS011;1679;50.392;8.008;2022-07-29T05:15:54;3.13;;;2.73;;
3333;SDS011;1679;50.392;8.008;2022-07-29T05:18:24;3.27;;;3.07;;
3333;SDS011;1679;50.392;8.008;2022-07-29T05:20:50;3.40;;;3.10;;
3333;SDS011;1679;50.392;8.008;2022-07-29T05:23:16;3.20;;;3.00;;
3333;SDS011;1679;50.392;8.008;2022-07-29T05:25:41;3.13;;;2.83;;
3333;SDS011;1679;50.392;8.008;2022-07-29T05:28:07;4.23;;;3.77;;
3333;SDS011;1679;50.392;8.008;2022-07-29T05:30:33;3.70;;;3.40;;
3333;SDS011;1679;50.392;8.008;2022-07-29T05:32:58;4.33;;;2.90;;
3333;SDS011;1679;50.392;8.008;2022-07-29T05:35:24;4.23;;;3.10;;
3333;SDS011;1679;50.392;8.008;2022-07-29T05:37:49;4.37;;;2.67;;
3333;SDS011;1679;50.392;8.008;2022-07-29T05:40:15;3.50;;;3.20;;
3333;SDS011;1679;50.392;8.008;2022-07-29T05:42:40;3.10;;;2.90;;
3333;SDS011;1679;50.392;8.008;2022-07-29T05:45:06;2.83;;;2.70;;
3333;SDS011;1679;50.392;8.008;2022-07-29T05:47:33;6.17;;;2.97;;
3333;SDS011;1679;50.392;8.008;2022-07-29T05:49:58;9.13;;;3.13;;
3333;SDS011;1679;50.392;8.008;2022-07-29T05:52:24;8.67;;;3.40;;
3333;SDS011;1679;50.392;8.008;2022-07-29T05:54:50;3.80;;;2.97;;
3333;SDS011;1679;50.392;8.008;2022-07-29T05:57:20;4.53;;;2.97;;
3333;SDS011;1679;50.392;8.008;2022-07-29T05:59:47;4.07;;;2.90;;
3333;SDS011;1679;50.392;8.008;2022-07-29T06:02:13;4.40;;;2.97;;
3333;SDS011;1679;50.392;8.008;2022-07-29T06:04:39;2.70;;;2.50;;
3333;SDS011;1679;50.392;8.008;2022-07-29T06:07:05;3.20;;;2.90;;
3333;SDS011;1679;50.392;8.008;2022-07-29T06:09:31;3.10;;;2.50;;
3333;SDS011;1679;50.392;8.008;2022-07-29T06:11:58;3.20;;;2.90;;
3333;SDS011;1679;50.392;8.008;2022-07-29T06:14:23;5.73;;;2.50;;
3333;SDS011;1679;50.392;8.008;2022-07-29T06:16:49;6.40;;;2.20;;
3333;SDS011;1679;50.392;8.008;2022-07-29T06:19:15;3.93;;;3.50;;
3333;SDS011;1679;50.392;8.008;2022-07-29T06:21:42;7.00;;;3.20;;
3333;SDS011;1679;50.392;8.008;2022-07-29T06:24:08;7.33;;;3.63;;
3333;SDS011;1679;50.392;8.008;2022-07-29T06:26:35;3.47;;;3.03;;
3333;SDS011;1679;50.392;8.008;2022-07-29T06:29:00;2.93;;;2.53;;
3333;SDS011;1679;50.392;8.008;2022-07-29T06:31:26;2.43;;;2.33;;
3333;SDS011;1679;50.392;8.008;2022-07-29T06:33:51;3.20;;;2.90;;
3333;SDS011;1679;50.392;8.008;2022-07-29T06:36:17;4.33;;;2.70;;
3333;SDS011;1679;50.392;8.008;2022-07-29T06:38:43;4.33;;;3.00;;
3333;SDS011;1679;50.392;8.008;2022-07-29T06:41:09;6.43;;;2.77;;
3333;SDS011;1679;50.392;8.008;2022-07-29T06:43:38;6.10;;;2.80;;
3333;SDS011;1679;50.392;8.008;2022-07-29T06:46:10;3.13;;;2.83;;
3333;SDS011;1679;50.392;8.008;2022-07-29T06:48:37;4.03;;;2.67;;
3333;SDS011;1679;50.392;8.008;2022-07-29T06:51:05;2.93;;;2.73;;
3333;SDS011;1679;50.392;8.008;2022-07-29T06:53:31;3.00;;;2.60;;
3333;SDS011;1679;50.392;8.008;2022-07-29T06:55:58;7.30;;;3.17;;
3333;SDS011;1679;50.392;8.008;2022-07-29T06:58:25;4.33;;;2.37;;
3333;SDS011;1679;50.392;8.008;2022-07-29T07:00:51;8.63;;;2.80;;
3333;SDS011;1679;50.392;8.008;2022-07-29T07:03:18;3.13;;;2.57;;
3333;SDS011;1679;50.392;8.008;2022-07-29T07:05:44;2.97;;;2.70;;
3333;SDS011;1679;50.392;8.008;2022-07-29T07:08:10;6.00;;;2.83;;
3333;SDS011;1679;50.392;8.008;2022-07-29T07:10:37;5.70;;;2.60;;
3333;SDS011;1679;50.392;8.008;2022-07-29T07:13:03;7.20;;;3.40;;
3333;SDS011;1679;50.392;8.008;2022-07-29T07:15:30;4.40;;;3.07;;
3333;SDS011;1679;50.392;8.008;2022-07-29T07:17:56;7.43;;;2.70;;
3333;SDS011;1679;50.392;8.008;2022-07-29T07:20:22;2.70;;;2.50;;
3333;SDS011;1679;50.392;8.008;2022-07-29T07:22:48;2.83;;;2.43;;
3333;SDS011;1679;50.392;8.008;2022-07-29T07:25:14;4.07;;;2.53;;
3333;SDS011;1679;50.392;8.008;2022-07-29T07:27:40;3.40;;;2.83;;
3333;SDS011;1679;50.392;8.008;2022-07-29T07:30:06;3.37;;;3.07;;
3333;SDS011;1679;50.392;8.008;2022-07-29T07:32:32;5.03;;;2.90;;
3333;SDS011;1679;50.392;8.008;2022-07-29T07:34:58;6.57;;;3.07;;
3333;SDS011;1679;50.392;8.008;2022-07-29T07:37:24;3.30;;;3.00;;
3333;SDS011;1679;50.392;8.008;2022-07-29T07:39:51;3.00;;;2.70;;
3333;SDS011;1679;50.392;8.008;2022-07-29T07:42:17;5.80;;;2.67;;
3333;SDS011;1679;50.392;8.008;2022-07-29T07:44:43;3.40;;;2.67;;
3333;SDS011;1679;50.392;8.008;2022-07-29T07:47:10;3.97;;;2.73;;
3333;SDS011;1679;50.392;8.008;2022-07-29T07:49:36;4.07;;;2.50;;
3333;SDS011;1679;50.392;8.008;2022-07-29T07:52:02;3.27;;;2.70;;
3333;SDS011;1679;50.392;8.008;2022-07-29T07:54:28;2.70;;;2.50;;
3333;SDS011;1679;50.392;8.008;2022-07-29T07:56:54;3.00;;;2.70;;
3333;SDS011;1679;50.392;8.008;2022-07-29T07:59:19;2.70;;;2.53;;
3333;SDS011;1679;50.392;8.008;2022-07-29T08:01:45;7.17;;;2.93;;
3333;SDS011;1679;50.392;8.008;2022-07-29T08:04:11;3.77;;;2.43;;
3333;SDS011;1679;50.392;8.008;2022-07-29T08:06:36;10.10;;;2.90;;
3333;SDS011;1679;50.392;8.008;2022-07-29T08:09:03;2.53;;;2.33;;
3333;SDS011;1679;50.392;8.008;2022-07-29T08:11:29;5.83;;;3.30;;
3333;SDS011;1679;50.392;8.008;2022-07-29T08:13:55;3.17;;;2.83;;
3333;SDS011;1679;50.392;8.008;2022-07-29T08:16:21;3.80;;;3.03;;
3333;SDS011;1679;50.392;8.008;2022-07-29T08:18:46;7.57;;;2.90;;
3333;SDS011;1679;50.392;8.008;2022-07-29T08:21:13;4.83;;;3.47;;
3333;SDS011;1679;50.392;8.008;2022-07-29T08:23:40;3.60;;;3.20;;
3333;SDS011;1679;50.392;8.008;2022-07-29T08:26:17;5.63;;;2.90;;
3333;SDS011;1679;50.392;8.008;2022-07-29T08:28:43;4.83;;;3.17;;
3333;SDS011;1679;50.392;8.008;2022-07-29T08:31:11;4.13;;;2.80;;
3333;SDS011;1679;50.392;8.008;2022-07-29T08:33:37;7.00;;;3.27;;
3333;SDS011;1679;50.392;8.008;2022-07-29T08:36:04;9.30;;;3.23;;
3333;SDS011;1679;50.392;8.008;2022-07-29T08:38:30;5.10;;;3.20;;
3333;SDS011;1679;50.392;8.008;2022-07-29T08:40:56;4.50;;;2.93;;
3333;SDS011;1679;50.392;8.008;2022-07-29T08:43:23;4.07;;;2.77;;
3333;SDS011;1679;50.392;8.008;2022-07-29T08:45:50;5.80;;;2.73;;
3333;SDS011;1679;50.392;8.008;2022-07-29T08:48:17;4.60;;;4.13;;
3333;SDS011;1679;50.392;8.008;2022-07-29T08:50:45;4.30;;;2.70;;
3333;SDS011;1679;50.392;8.008;2022-07-29T08:53:13;3.30;;;2.80;;
3333;SDS011;1679;50.392;8.008;2022-07-29T08:55:41;3.67;;;2.60;;
3333;SDS011;1679;50.392;8.008;2022-07-29T08:58:09;4.80;;;3.20;;
3333;SDS011;1679;50.392;8.008;2022-07-29T09:00:36;4.03;;;3.30;;
3333;SDS011;1679;50.392;8.008;2022-07-29T09:03:05;4.63;;;3.37;;
3333;SDS011;1679;50.392;8.008;2022-07-29T09:05:33;3.10;;;2.90;;
3333;SDS011;1679;50.392;8.008;2022-07-29T09:07:59;5.20;;;3.30;;
3333;SDS011;1679;50.392;8.008;2022-07-29T09:10:26;3.70;;;2.90;;
3333;SDS011;1679;50.392;8.008;2022-07-29T09:12:54;9.07;;;3.30;;
3333;SDS011;1679;50.392;8.008;2022-07-29T09:15:20;5.90;;;3.67;;
3333;SDS011;1679;50.392;8.008;2022-07-29T09:17:46;5.97;;;3.57;;
3333;SDS011;1679;50.392;8.008;2022-07-29T09:20:14;3.77;;;3.43;;
3333;SDS011;1679;50.392;8.008;2022-07-29T09:22:42;6.37;;;3.87;;
3333;SDS011;1679;50.392;8.008;2022-07-29T09:25:07;3.13;;;2.73;;
3333;SDS011;1679;50.392;8.008;2022-07-29T09:27:33;3.13;;;2.93;;
3333;SDS011;1679;50.392;8.008;2022-07-29T09:32:30;5.10;;;3.63;;
3333;SDS011;1679;50.392;8.008;2022-07-29T09:37:44;4.20;;;3.23;;
3333;SDS011;1679;50.392;8.008;2022-07-29T09:40:31;3.50;;;2.97;;
3333;SDS011;1679;50.392;8.008;2022-07-29T09:42:56;5.73;;;3.93;;
3333;SDS011;1679;50.392;8.008;2022-07-29T09:45:26;7.40;;;3.57;;
3333;SDS011;1679;50.392;8.008;2022-07-29T09:47:54;5.03;;;3.70;;
3333;SDS011;1679;50.392;8.008;2022-07-29T09:50:22;3.47;;;3.27;;
3333;SDS011;1679;50.392;8.008;2022-07-29T09:52:51;6.90;;;3.30;;
3333;SDS011;1679;50.392;8.008;2022-07-29T09:55:18;3.43;;;3.20;;
3333;SDS011;1679;50.392;8.008;2022-07-29T09:57:44;5.40;;;3.60;;
3333;SDS011;1679;50.392;8.008;2022-07-29T10:00:15;3.77;;;3.47;;
3333;SDS011;1679;50.392;8.008;2022-07-29T10:02:43;4.17;;;3.87;;
3333;SDS011;1679;50.392;8.008;2022-07-29T10:05:18;5.23;;;3.73;;
3333;SDS011;1679;50.392;8.008;2022-07-29T10:07:58;3.90;;;3.50;;
3333;SDS011;1679;50.392;8.008;2022-07-29T10:10:31;4.60;;;3.40;;
3333;SDS011;1679;50.392;8.008;2022-07-29T10:13:03;4.00;;;3.60;;
3333;SDS011;1679;50.392;8.008;2022-07-29T10:15:32;4.70;;;3.80;;
3333;SDS011;1679;50.392;8.008;2022-07-29T10:18:04;4.20;;;3.80;;
3333;SDS011;1679;50.392;8.008;2022-07-29T10:20:30;4.57;;;3.80;;
3333;SDS011;1679;50.392;8.008;2022-07-29T10:22:56;7.10;;;3.80;;
3333;SDS011;1679;50.392;8.008;2022-07-29T10:25:22;5.00;;;3.37;;
3333;SDS011;1679;50.392;8.008;2022-07-29T10:27:49;3.30;;;3.10;;
3333;SDS011;1679;50.392;8.008;2022-07-29T10:30:16;9.23;;;3.53;;
3333;SDS011;1679;50.392;8.008;2022-07-29T10:46:38;4.13;;;3.83;;
3333;SDS011;1679;50.392;8.008;2022-07-29T10:49:05;8.03;;;3.80;;
3333;SDS011;1679;50.392;8.008;2022-07-29T10:54:36;4.37;;;3.97;;
3333;SDS011;1679;50.392;8.008;2022-07-29T10:59:50;3.90;;;3.70;;
3333;SDS011;1679;50.392;8.008;2022-07-29T11:05:08;4.30;;;4.00;;
3333;SDS011;1679;50.392;8.008;2022-07-29T11:07:35;4.37;;;4.00;;
3333;SDS011;1679;50.392;8.008;2022-07-29T11:15:09;4.23;;;3.83;;
3333;SDS011;1679;50.392;8.008;2022-07-29T11:25:45;5.20;;;4.10;;
3333;SDS011;1679;50.392;8.008;2022-07-29T11:28:32;4.13;;;3.60;;
3333;SDS011;1679;50.392;8.008;2022-07-29T11:30:59;4.27;;;3.97;;
3333;SDS011;1679;50.392;8.008;2022-07-29T11:33:35;4.50;;;4.17;;
3333;SDS011;1679;50.392;8.008;2022-07-29T11:36:10;3.90;;;3.70;;
3333;SDS011;1679;50.392;8.008;2022-07-29T11:38:38;3.80;;;3.50;;
3333;SDS011;1679;50.392;8.008;2022-07-29T11:41:37;7.70;;;4.40;;
3333;SDS011;1679;50.392;8.008;2022-07-29T11:44:00;4.47;;;3.83;;
3333;SDS011;1679;50.392;8.008;2022-07-29T11:49:23;7.40;;;4.87;;
3333;SDS011;1679;50.392;8.008;2022-07-29T11:51:53;4.60;;;4.17;;
3333;SDS011;1679;50.392;8.008;2022-07-29T11:54:24;4.50;;;3.97;;
3333;SDS011;1679;50.392;8.008;2022-07-29T11:56:55;3.83;;;3.43;;
3333;SDS011;1679;50.392;8.008;2022-07-29T11:59:22;4.67;;;4.20;;
3333;SDS011;1679;50.392;8.008;2022-07-29T12:01:53;4.40;;;4.13;;
3333;SDS011;1679;50.392;8.008;2022-07-29T12:04:19;4.40;;;3.93;;
3333;SDS011;1679;50.392;8.008;2022-07-29T12:06:51;4.13;;;3.93;;
3333;SDS011;1679;50.392;8.008;2022-07-29T12:09:17;3.90;;;3.70;;
3333;SDS011;1679;50.392;8.008;2022-07-29T12:11:43;4.87;;;4.43;;
3333;SDS011;1679;50.392;8.008;2022-07-29T12:14:23;4.60;;;4.30;;
3333;SDS011;1679;50.392;8.008;2022-07-29T12:16:58;4.40;;;4.20;;
3333;SDS011;1679;50.392;8.008;2022-07-29T12:19:27;7.43;;;4.13;;
3333;SDS011;1679;50.392;8.008;2022-07-29T12:21:54;4.43;;;4.10;;
3333;SDS011;1679;50.392;8.008;2022-07-29T12:24:20;5.90;;;4.03;;
3333;SDS011;1679;50.392;8.008;2022-07-29T12:29:20;4.13;;;3.93;;
3333;SDS011;1679;50.392;8.008;2022-07-29T12:31:45;4.80;;;4.40;;
3333;SDS011;1679;50.392;8.008;2022-07-29T12:34:12;6.00;;;4.33;;
3333;SDS011;1679;50.392;8.008;2022-07-29T12:36:40;5.70;;;4.80;;
3333;SDS011;1679;50.392;8.008;2022-07-29T12:39:07;4.40;;;4.10;;
3333;SDS011;1679;50.392;8.008;2022-07-29T12:41:34;4.33;;;4.00;;
3333;SDS011;1679;50.392;8.008;2022-07-29T12:44:00;4.70;;;4.40;;
3333;SDS011;1679;50.392;8.008;2022-07-29T12:46:26;4.20;;;3.90;;
3333;SDS011;1679;50.392;8.008;2022-07-29T12:48:52;4.27;;;3.90;;
3333;SDS011;1679;50.392;8.008;2022-07-29T12:51:33;4.20;;;3.80;;
3333;SDS011;1679;50.392;8.008;2022-07-29T12:56:32;4.33;;;4.03;;
3333;SDS011;1679;50.392;8.008;2022-07-29T12:58:58;4.43;;;4.13;;
3333;SDS011;1679;50.392;8.008;2022-07-29T13:01:24;4.53;;;4.20;;
3333;SDS011;1679;50.392;8.008;2022-07-29T13:03:55;3.93;;;3.73;;
3333;SDS011;1679;50.392;8.008;2022-07-29T13:09:13;4.03;;;3.83;;
3333;SDS011;1679;50.392;8.008;2022-07-29T13:11:41;6.10;;;3.90;;
3333;SDS011;1679;50.392;8.008;2022-07-29T13:14:07;4.30;;;4.10;;
3333;SDS011;1679;50.392;8.008;2022-07-29T13:16:34;3.87;;;3.57;;
3333;SDS011;1679;50.392;8.008;2022-07-29T13:19:07;4.30;;;4.00;;
3333;SDS011;1679;50.392;8.008;2022-07-29T13:21:34;4.90;;;4.40;;
3333;SDS011;1679;50.392;8.008;2022-07-29T13:24:01;4.30;;;4.00;;
3333;SDS011;1679;50.392;8.008;2022-07-29T13:26:26;3.50;;;3.30;;
3333;SDS011;1679;50.392;8.008;2022-07-29T13:28:52;5.87;;;4.20;;
3333;SDS011;1679;50.392;8.008;2022-07-29T13:31:19;4.30;;;4.10;;
3333;SDS011;1679;50.392;8.008;2022-07-29T13:33:45;4.30;;;4.00;;
3333;SDS011;1679;50.392;8.008;2022-07-29T13:36:10;3.73;;;3.53;;
3333;SDS011;1679;50.392;8.008;2022-07-29T13:38:36;4.07;;;3.87;;
3333;SDS011;1679;50.392;8.008;2022-07-29T13:41:01;4.30;;;3.97;;
3333;SDS011;1679;50.392;8.008;2022-07-29T13:43:27;3.90;;;3.70;;
3333;SDS011;1679;50.392;8.008;2022-07-29T13:45:53;4.20;;;4.00;;
3333;SDS011;1679;50.392;8.008;2022-07-29T13:48:18;4.13;;;3.87;;
3333;SDS011;1679;50.392;8.008;2022-07-29T13:50:44;4.10;;;3.80;;
3333;SDS011;1679;50.392;8.008;2022-07-29T13:53:10;4.40;;;4.00;;
3333;SDS011;1679;50.392;8.008;2022-07-29T13:55:36;4.47;;;4.20;;
3333;SDS011;1679;50.392;8.008;2022-07-29T13:58:02;3.80;;;3.40;;
3333;SDS011;1679;50.392;8.008;2022-07-29T14:00:28;4.23;;;3.00;;
3333;SDS011;1679;50.392;8.008;2022-07-29T14:02:54;5.90;;;3.40;;
3333;SDS011;1679;50.392;8.008;2022-07-29T14:05:19;3.53;;;2.93;;
3333;SDS011;1679;50.392;8.008;2022-07-29T14:07:45;2.90;;;2.57;;
3333;SDS011;1679;50.392;8.008;2022-07-29T14:10:10;4.83;;;3.57;;
3333;SDS011;1679;50.392;8.008;2022-07-29T14:12:36;2.80;;;2.60;;
3333;SDS011;1679;50.392;8.008;2022-07-29T14:15:02;6.17;;;3.10;;
3333;SDS011;1679;50.392;8.008;2022-07-29T14:17:28;6.07;;;2.70;;
3333;SDS011;1679;50.392;8.008;2022-07-29T14:19:53;4.60;;;3.03;;
3333;SDS011;1679;50.392;8.008;2022-07-29T14:22:19;2.53;;;2.40;;
3333;SDS011;1679;50.392;8.008;2022-07-29T14:24:45;3.73;;;2.67;;
3333;SDS011;1679;50.392;8.008;2022-07-29T14:27:11;2.63;;;2.47;;
3333;SDS011;1679;50.392;8.008;2022-07-29T14:29:36;5.63;;;2.80;;
3333;SDS011;1679;50.392;8.008;2022-07-29T14:32:02;5.47;;;3.40;;
3333;SDS011;1679;50.392;8.008;2022-07-29T14:34:29;3.10;;;2.90;;
3333;SDS011;1679;50.392;8.008;2022-07-29T14:36:54;5.20;;;3.30;;
3333;SDS011;1679;50.392;8.008;2022-07-29T14:39:23;3.40;;;3.10;;
3333;SDS011;1679;50.392;8.008;2022-07-29T14:41:49;3.50;;;3.20;;
3333;SDS011;1679;50.392;8.008;2022-07-29T14:44:16;3.33;;;2.83;;
3333;SDS011;1679;50.392;8.008;2022-07-29T14:46:42;2.93;;;2.63;;
3333;SDS011;1679;50.392;8.008;2022-07-29T14:49:08;3.90;;;3.47;;
3333;SDS011;1679;50.392;8.008;2022-07-29T14:51:33;4.03;;;3.53;;
3333;SDS011;1679;50.392;8.008;2022-07-29T14:53:59;3.87;;;3.00;;
3333;SDS011;1679;50.392;8.008;2022-07-29T14:56:24;5.23;;;3.17;;
3333;SDS011;1679;50.392;8.008;2022-07-29T14:58:50;3.53;;;3.23;;
3333;SDS011;1679;50.392;8.008;2022-07-29T15:01:16;7.10;;;3.60;;
3333;SDS011;1679;50.392;8.008;2022-07-29T15:03:41;3.37;;;3.10;;
3333;SDS011;1679;50.392;8.008;2022-07-29T15:06:07;4.20;;;2.83;;
3333;SDS011;1679;50.392;8.008;2022-07-29T15:08:32;3.77;;;3.40;;
3333;SDS011;1679;50.392;8.008;2022-07-29T15:10:58;3.37;;;3.17;;
3333;SDS011;1679;50.392;8.008;2022-07-29T15:13:25;3.00;;;2.90;;
3333;SDS011;1679;50.392;8.008;2022-07-29T15:15:51;3.87;;;3.63;;
3333;SDS011;1679;50.392;8.008;2022-07-29T15:18:17;3.67;;;3.23;;
3333;SDS011;1679;50.392;8.008;2022-07-29T15:20:43;3.37;;;3.17;;
3333;SDS011;1679;50.392;8.008;2022-07-29T15:23:11;3.87;;;3.57;;
3333;SDS011;1679;50.392;8.008;2022-07-29T15:25:37;3.97;;;3.77;;
3333;SDS011;1679;50.392;8.008;2022-07-29T15:28:03;4.70;;;3.30;;
3333;SDS011;1679;50.392;8.008;2022-07-29T15:30:32;4.70;;;3.47;;
3333;SDS011;1679;50.392;8.008;2022-07-29T15:32:58;4.90;;;3.43;;
3333;SDS011;1679;50.392;8.008;2022-07-29T15:35:25;3.70;;;3.50;;
3333;SDS011;1679;50.392;8.008;2022-07-29T15:37:50;3.53;;;3.33;;
3333;SDS011;1679;50.392;8.008;2022-07-29T15:40:16;3.37;;;3.17;;
3333;SDS011;1679;50.392;8.008;2022-07-29T15:42:41;3.63;;;3.43;;
3333;SDS011;1679;50.392;8.008;2022-07-29T15:45:07;5.60;;;4.30;;
3333;SDS011;1679;50.392;8.008;2022-07-29T15:47:34;3.90;;;3.53;;
3333;SDS011;1679;50.392;8.008;2022-07-29T15:50:00;3.70;;;3.50;;
3333;SDS011;1679;50.392;8.008;2022-07-29T15:52:26;3.20;;;3.00;;
3333;SDS011;1679;50.392;8.008;2022-07-29T15:54:55;4.27;;;3.87;;
3333;SDS011;1679;50.392;8.008;2022-07-29T15:57:21;3.80;;;3.47;;
3333;SDS011;1679;50.392;8.008;2022-07-29T15:59:47;3.67;;;3.47;;
3333;SDS011;1679;50.392;8.008;2022-07-29T16:02:13;6.20;;;4.90;;
3333;SDS011;1679;50.392;8.008;2022-07-29T16:04:38;6.93;;;3.97;;
3333;SDS011;1679;50.392;8.008;2022-07-29T16:07:04;4.80;;;3.50;;
3333;SDS011;1679;50.392;8.008;2022-07-29T16:09:30;4.10;;;3.80;;
3333;SDS011;1679;50.392;8.008;2022-07-29T16:11:55;3.83;;;3.63;;
3333;SDS011;1679;50.392;8.008;2022-07-29T16:14:21;3.50;;;3.30;;
3333;SDS011;1679;50.392;8.008;2022-07-29T16:16:46;3.70;;;3.50;;